Longvann — PBYB — position and weather

sailwx.info

Track history (hours):
 
Tides and Currents Weather Stations Pressure Air Temp Water Temp Dewpoint Dewpoint Depression Visibility Wind Speed Wind Dir Waves Ship Positions

Longvann

Last reported at 2017-Jun-22 10:16 UTC. Time now 2017-Jun-23 14:05 UTC.
Position N 57°29' E 021°16'.

Length 114 m; draft 3.8 m.

Type: Cargo ship. MMSI: 246670000.

Date/timePositionNaut miles runAvg speedWind from/ knotsBaromVisibWave heightAir tempDewpointWater temp
2017-Jun-22 10:16N 57°29' E 021°16'11511.0
2017-Jun-21 23:49N 55°53' E 019°20'511.3
2017-Jun-21 23:20N 55°49' E 019°14'811.2
2017-Jun-21 22:39N 55°42' E 019°06'810.9
2017-Jun-21 21:55N 55°36' E 018°59'1611.1
2017-Jun-21 20:31N 55°20' E 019°00'710.8
2017-Jun-21 19:50N 55°13' E 019°00'910.7
2017-Jun-21 18:57N 55°03' E 019°00'511.1
2017-Jun-21 18:30N 54°58' E 019°01'510.5
2017-Jun-21 18:01N 54°53' E 019°01'510.2
2017-Jun-21 17:31N 54°48' E 019°01'5 9.2
2017-Jun-21 17:01N 54°43' E 018°59'510.3
2017-Jun-21 16:30N 54°39' E 018°56'510.0
2017-Jun-21 16:00N 54°34' E 018°52'510.4
2017-Jun-21 15:31N 54°30' E 018°46'510.3
2017-Jun-21 15:01N 54°27' E 018°40'3 6.0
2017-Jun-21 14:31N 54°24' E 018°40'1 0.8
2017-Jun-21 13:29N 54°23' E 018°39'0 0.0
2017-Jun-21 12:59N 54°23' E 018°39'0 0.0
2017-Jun-21 12:26N 54°23' E 018°39'0 0.0
2017-Jun-21 11:59N 54°23' E 018°39'0 0.0
2017-Jun-21 11:29N 54°23' E 018°39'0 0.0
2017-Jun-21 10:59N 54°23' E 018°39'0 0.0
2017-Jun-21 10:29N 54°23' E 018°39'0 0.0
2017-Jun-21 09:59N 54°23' E 018°39'0 0.0
2017-Jun-21 09:29N 54°23' E 018°39'0 0.0
2017-Jun-21 08:59N 54°23' E 018°39'0 0.0
2017-Jun-21 08:29N 54°23' E 018°39'0 0.0
2017-Jun-21 07:59N 54°23' E 018°39'0 0.0
2017-Jun-21 07:29N 54°23' E 018°39'0 0.0
2017-Jun-21 06:59N 54°23' E 018°39'0 0.0
2017-Jun-21 06:29N 54°23' E 018°39'0 0.0
2017-Jun-21 05:59N 54°23' E 018°39'0 0.0
2017-Jun-21 05:29N 54°23' E 018°39'0 0.0
2017-Jun-21 04:59N 54°23' E 018°39'0 0.0
2017-Jun-21 04:29N 54°23' E 018°39'0 0.0
2017-Jun-21 03:59N 54°23' E 018°39'0 0.0
2017-Jun-21 03:29N 54°23' E 018°39'0 0.0
2017-Jun-21 02:59N 54°23' E 018°39'0 0.0
2017-Jun-21 02:29N 54°23' E 018°39'0 0.0
2017-Jun-21 01:59N 54°23' E 018°39'0 0.0
2017-Jun-21 01:29N 54°23' E 018°39'0 0.7
2017-Jun-21 01:00N 54°23' E 018°40'2 4.0
2017-Jun-21 00:31N 54°25' E 018°39'3 5.7
2017-Jun-21 00:01N 54°28' E 018°41'4 7.9
2017-Jun-20 23:31N 54°31' E 018°46'4 8.9
2017-Jun-20 23:01N 54°34' E 018°51'5 9.5
2017-Jun-20 22:31N 54°38' E 018°55'5 9.1
2017-Jun-20 22:01N 54°42' E 018°58'4 8.6
2017-Jun-20 21:31N 54°47' E 018°60'4 8.9
2017-Jun-20 21:00N 54°51' E 018°60'5 9.3
2017-Jun-20 20:31N 54°56' E 018°60'5 9.3
2017-Jun-20 20:00N 55°00' E 018°59'5 9.1
2017-Jun-20 19:27N 55°05' E 018°59'5 9.2
2017-Jun-20 18:54N 55°11' E 018°59'27 9.7
2017-Jun-20 16:03N 55°38' E 019°06'3 9.9
2017-Jun-20 15:45N 55°40' E 019°09'310.1
2017-Jun-20 15:29N 55°43' E 019°11'610.1
2017-Jun-20 14:56N 55°48' E 019°16'1210.3
2017-Jun-20 13:46N 55°58' E 019°26'14010.7
2017-Jun-20 00:37N 58°09' E 020°58'110.6
2017-Jun-20 00:30N 58°10' E 020°58'510.7
2017-Jun-20 00:00N 58°15' E 021°01'510.6
2017-Jun-19 23:30N 58°20' E 021°05'510.7
2017-Jun-19 23:00N 58°26' E 021°08'510.7
2017-Jun-19 22:30N 58°31' E 021°11'510.7
2017-Jun-19 22:00N 58°36' E 021°14'510.7
2017-Jun-19 21:30N 58°41' E 021°16'510.8
2017-Jun-19 21:00N 58°46' E 021°17'510.6
2017-Jun-19 20:30N 58°51' E 021°21'611.1
2017-Jun-19 20:00N 58°56' E 021°24'510.7
2017-Jun-19 19:30N 59°01' E 021°28'510.5
2017-Jun-19 19:00N 59°06' E 021°32'510.3
2017-Jun-19 18:30N 59°10' E 021°39'510.6
2017-Jun-19 18:00N 59°13' E 021°47'510.6
2017-Jun-19 17:30N 59°17' E 021°55'510.6
2017-Jun-19 17:00N 59°20' E 022°03'510.7
2017-Jun-19 16:30N 59°23' E 022°11'510.8
2017-Jun-19 16:00N 59°27' E 022°20'510.8
2017-Jun-19 15:30N 59°30' E 022°28'510.3
2017-Jun-19 15:00N 59°32' E 022°37'510.5
2017-Jun-19 14:30N 59°34' E 022°47'1010.4
2017-Jun-19 13:30N 59°36' E 023°07'510.6
2017-Jun-19 13:00N 59°38' E 023°17'510.5
2017-Jun-19 12:31N 59°39' E 023°27'510.7
2017-Jun-19 12:01N 59°41' E 023°37'510.8
2017-Jun-19 11:31N 59°42' E 023°48'510.8
2017-Jun-19 11:01N 59°43' E 023°58'510.9
2017-Jun-19 10:30N 59°45' E 024°08'611.0
2017-Jun-19 10:00N 59°46' E 024°19'510.8
2017-Jun-19 09:30N 59°48' E 024°29'510.5
2017-Jun-19 09:00N 59°49' E 024°40'510.3
2017-Jun-19 08:30N 59°50' E 024°50'510.1
2017-Jun-19 08:00N 59°51' E 024°59'510.2
2017-Jun-19 07:30N 59°52' E 025°09'510.3
2017-Jun-19 07:00N 59°53' E 025°19'510.6
2017-Jun-19 06:31N 59°54' E 025°30'510.5
2017-Jun-19 06:00N 59°55' E 025°40'510.3
2017-Jun-19 05:30N 59°56' E 025°50'510.4
2017-Jun-19 05:00N 59°57' E 026°00'510.8
2017-Jun-19 04:30N 59°59' E 026°11'511.0
2017-Jun-19 04:01N 60°00' E 026°21'510.3
2017-Jun-19 03:31N 60°01' E 026°31'510.7
2017-Jun-19 03:01N 60°01' E 026°42'510.4
2017-Jun-19 02:30N 60°00' E 026°52'510.5
2017-Jun-19 02:00N 59°59' E 027°03'510.8
2017-Jun-19 01:31N 60°02' E 027°12'510.8
2017-Jun-19 01:00N 60°05' E 027°21'510.8
2017-Jun-19 00:30N 60°08' E 027°30'510.7
2017-Jun-19 00:00N 60°11' E 027°40'510.1
2017-Jun-18 23:30N 60°12' E 027°49'510.5
2017-Jun-18 23:00N 60°11' E 027°60'510.5
2017-Jun-18 22:30N 60°09' E 028°10'510.1
2017-Jun-18 22:00N 60°07' E 028°19'510.1
2017-Jun-18 21:30N 60°04' E 028°27'510.0
2017-Jun-18 21:01N 60°03' E 028°37'510.2
2017-Jun-18 20:30N 60°03' E 028°47'5 9.9
2017-Jun-18 20:00N 60°03' E 028°57'510.1
2017-Jun-18 19:30N 60°02' E 029°07'510.3
2017-Jun-18 19:00N 60°02' E 029°18'6 9.2
2017-Jun-18 18:23N 60°01' E 029°29'1810.6
2017-Jun-18 16:43N 59°55' E 030°02'210.3
2017-Jun-18 16:30N 59°54' E 030°06'3 6.5
2017-Jun-18 15:58N 59°53' E 030°12'0 0.5
2017-Jun-18 15:28N 59°54' E 030°13'0 0.0
2017-Jun-18 14:49N 59°54' E 030°13'0 0.0
2017-Jun-18 13:58N 59°54' E 030°13'0 0.0
2017-Jun-18 13:22N 59°54' E 030°13'0 0.0
2017-Jun-18 12:58N 59°54' E 030°13'0 0.0
2017-Jun-18 12:28N 59°54' E 030°13'0 0.0
2017-Jun-18 11:58N 59°54' E 030°13'0 0.0
2017-Jun-18 11:16N 59°54' E 030°13'0 0.0
2017-Jun-18 10:52N 59°54' E 030°13'0 0.0
2017-Jun-18 10:28N 59°54' E 030°13'0 0.0
2017-Jun-18 09:58N 59°54' E 030°13'0 0.0
2017-Jun-18 09:28N 59°54' E 030°13'0 0.0
2017-Jun-18 08:58N 59°54' E 030°13'0 0.0
2017-Jun-18 08:28N 59°54' E 030°13'0 0.0
2017-Jun-18 07:58N 59°54' E 030°13'0 0.0
2017-Jun-18 07:28N 59°54' E 030°13'0 0.0
2017-Jun-18 06:58N 59°54' E 030°13'0 0.0
2017-Jun-18 06:28N 59°54' E 030°13'0 0.0
2017-Jun-18 05:55N 59°54' E 030°13'0 0.0
2017-Jun-18 05:28N 59°54' E 030°13'0 0.0
2017-Jun-18 04:58N 59°54' E 030°13'0 0.0
2017-Jun-18 04:28N 59°54' E 030°13'0 0.0
2017-Jun-18 03:58N 59°54' E 030°13'0 0.0
2017-Jun-18 03:28N 59°54' E 030°13'0 0.0
2017-Jun-18 02:58N 59°54' E 030°13'0 0.0
2017-Jun-18 02:28N 59°54' E 030°13'0 0.0
2017-Jun-18 01:58N 59°54' E 030°13'0 0.0
2017-Jun-18 01:28N 59°54' E 030°13'0 0.0
2017-Jun-18 00:58N 59°54' E 030°13'0 0.0
2017-Jun-18 00:28N 59°54' E 030°13'0 0.0
2017-Jun-17 23:58N 59°54' E 030°13'0 0.0
2017-Jun-17 23:28N 59°54' E 030°13'0 0.0
2017-Jun-17 22:58N 59°54' E 030°13'1 1.1
2017-Jun-17 22:30N 59°53' E 030°12'3 5.9
2017-Jun-17 22:00N 59°54' E 030°06'510.5
2017-Jun-17 21:30N 59°56' E 029°56'510.9
2017-Jun-17 21:00N 59°58' E 029°47'3 5.6
2017-Jun-17 20:30N 59°60' E 029°41'5 9.7
2017-Jun-17 20:00N 60°01' E 029°32'5 9.6
2017-Jun-17 19:30N 60°02' E 029°23'510.0
2017-Jun-17 19:00N 60°02' E 029°13'510.2
2017-Jun-17 18:30N 60°02' E 029°02'510.6
2017-Jun-17 18:00N 60°02' E 028°52'611.9
2017-Jun-17 17:30N 60°02' E 028°40'611.7
2017-Jun-17 17:00N 60°03' E 028°28'611.7
2017-Jun-17 16:30N 60°06' E 028°18'611.8
2017-Jun-17 16:00N 60°08' E 028°08'611.8
2017-Jun-17 15:30N 60°10' E 027°56'611.3
2017-Jun-17 15:00N 60°10' E 027°45'1211.9
2017-Jun-17 14:00N 60°04' E 027°24'611.8
2017-Jun-17 13:30N 60°01' E 027°14'611.8
2017-Jun-17 13:00N 59°58' E 027°04'611.7
2017-Jun-17 12:30N 59°58' E 026°52'611.8
2017-Jun-17 12:00N 59°59' E 026°41'611.8
2017-Jun-17 11:30N 59°58' E 026°29'611.9
2017-Jun-17 11:00N 59°56' E 026°18'611.8
2017-Jun-17 10:30N 59°54' E 026°07'611.7
2017-Jun-17 10:00N 59°53' E 025°55'611.7
2017-Jun-17 09:30N 59°52' E 025°44'611.9
2017-Jun-17 09:00N 59°50' E 025°33'611.8
2017-Jun-17 08:30N 59°49' E 025°21'611.9
2017-Jun-17 08:00N 59°48' E 025°09'611.9
2017-Jun-17 07:30N 59°46' E 024°58'611.6
2017-Jun-17 07:00N 59°45' E 024°47'611.6
2017-Jun-17 06:30N 59°44' E 024°35'611.5
2017-Jun-17 06:00N 59°43' E 024°24'611.8
2017-Jun-17 05:30N 59°41' E 024°13'611.6
2017-Jun-17 05:00N 59°39' E 024°02'611.5
2017-Jun-17 04:30N 59°37' E 023°52'611.5
2017-Jun-17 04:00N 59°35' E 023°41'611.4
2017-Jun-17 03:30N 59°33' E 023°30'611.3
2017-Jun-17 03:00N 59°31' E 023°20'611.5
2017-Jun-17 02:30N 59°30' E 023°09'611.6
2017-Jun-17 02:00N 59°28' E 022°58'611.7
2017-Jun-17 01:30N 59°26' E 022°47'611.8
2017-Jun-17 01:00N 59°24' E 022°37'611.8
2017-Jun-17 00:30N 59°20' E 022°27'611.9
2017-Jun-17 00:00N 59°16' E 022°18'611.7
2017-Jun-16 23:30N 59°13' E 022°09'611.7
2017-Jun-16 23:01N 59°09' E 022°00'611.7
2017-Jun-16 22:30N 59°06' E 021°51'611.5
2017-Jun-16 22:00N 59°02' E 021°43'611.7
2017-Jun-16 21:30N 58°57' E 021°37'611.6
2017-Jun-16 21:00N 58°52' E 021°31'611.4
2017-Jun-16 20:30N 58°47' E 021°25'611.2
2017-Jun-16 20:00N 58°42' E 021°20'611.1
2017-Jun-16 19:30N 58°38' E 021°14'611.2
2017-Jun-16 19:00N 58°33' E 021°08'611.5
2017-Jun-16 18:30N 58°28' E 021°02'611.5
2017-Jun-16 18:00N 58°23' E 020°56'611.4
2017-Jun-16 17:30N 58°18' E 020°50'611.4
2017-Jun-16 17:00N 58°14' E 020°44'611.5
2017-Jun-16 16:30N 58°09' E 020°38'611.4
2017-Jun-16 16:00N 58°04' E 020°33'611.4
2017-Jun-16 15:30N 57°59' E 020°27'611.5
2017-Jun-16 15:01N 57°54' E 020°21'611.4
2017-Jun-16 14:30N 57°50' E 020°15'1311.8
2017-Jun-16 13:26N 57°39' E 020°02'511.8
2017-Jun-16 13:00N 57°35' E 019°57'611.8
2017-Jun-16 12:30N 57°30' E 019°51'711.9
2017-Jun-16 11:55N 57°24' E 019°44'2911.7
2017-Jun-16 09:26N 57°03' E 019°06'6211.8
2017-Jun-16 04:14N 56°25' E 017°38'312.0
2017-Jun-16 03:57N 56°23' E 017°33'511.9
2017-Jun-16 03:30N 56°20' E 017°25'611.9
2017-Jun-16 03:00N 56°16' E 017°17'611.9
2017-Jun-16 02:30N 56°12' E 017°09'611.9
2017-Jun-16 02:00N 56°09' E 017°00'611.8
2017-Jun-16 01:30N 56°05' E 016°52'611.8
2017-Jun-16 01:00N 56°02' E 016°44'611.8
2017-Jun-16 00:30N 55°58' E 016°35'611.8
2017-Jun-16 00:00N 55°55' E 016°26'611.6
2017-Jun-15 23:30N 55°53' E 016°17'611.5
2017-Jun-15 23:00N 55°50' E 016°08'611.6
2017-Jun-15 22:30N 55°47' E 015°58'611.6
2017-Jun-15 22:00N 55°44' E 015°49'611.7
2017-Jun-15 21:30N 55°42' E 015°40'611.9
2017-Jun-15 21:00N 55°39' E 015°31'611.7
2017-Jun-15 20:30N 55°36' E 015°22'611.6
2017-Jun-15 20:01N 55°33' E 015°13'611.6
2017-Jun-15 19:31N 55°31' E 015°04'611.6
2017-Jun-15 19:00N 55°28' E 014°55'611.8
2017-Jun-15 18:31N 55°25' E 014°46'611.2
2017-Jun-15 18:00N 55°22' E 014°37'611.3
2017-Jun-15 17:30N 55°17' E 014°31'611.4
2017-Jun-15 17:01N 55°13' E 014°25'611.5
2017-Jun-15 16:30N 55°08' E 014°19'611.5
2017-Jun-15 16:00N 55°04' E 014°13'611.0
2017-Jun-15 15:30N 55°00' E 014°06'611.5
2017-Jun-15 15:00N 54°58' E 013°56'611.6
2017-Jun-15 14:31N 54°57' E 013°47'1211.8
2017-Jun-15 13:30N 54°53' E 013°27'611.6
2017-Jun-15 12:59N 54°51' E 013°17'611.8
2017-Jun-15 12:30N 54°49' E 013°08'611.8
2017-Jun-15 12:01N 54°48' E 012°58'611.5
2017-Jun-15 11:30N 54°46' E 012°48'611.3
2017-Jun-15 11:00N 54°43' E 012°40'611.3
2017-Jun-15 10:30N 54°40' E 012°32'1710.9
2017-Jun-15 08:57N 54°27' E 012°14'16 1.9
2017-Jun-15 00:47N 54°14' E 011°59'0 0.0
2017-Jun-15 00:29N 54°14' E 011°59'0 0.0
2017-Jun-14 21:32N 54°14' E 011°59'0 0.0
2017-Jun-14 21:29N 54°14' E 011°59'0 0.0
2017-Jun-14 20:59N 54°14' E 011°59'0 0.0
2017-Jun-14 16:32N 54°14' E 011°59'0 0.0
2017-Jun-14 16:29N 54°14' E 011°59'1 0.4
2017-Jun-14 14:45N 54°13' E 012°00'5 7.1
2017-Jun-14 14:00N 54°10' E 012°06'0 0.3
2017-Jun-14 12:45N 54°09' E 012°07'0 0.0
2017-Jun-14 12:30N 54°09' E 012°07'0 0.0
2017-Jun-14 02:30N 54°09' E 012°07'0 0.1
2017-Jun-13 22:39N 54°09' E 012°06'4 2.3
2017-Jun-13 20:47N 54°13' E 012°02'1 1.7
2017-Jun-13 20:28N 54°13' E 012°01'0 0.0
2017-Jun-13 18:22N 54°13' E 012°01'0 0.0
2017-Jun-13 17:40N 54°13' E 012°01'0 0.0
2017-Jun-13 17:13N 54°13' E 012°01'0 0.0
2017-Jun-13 16:46N 54°13' E 012°01'0 0.0
2017-Jun-13 16:28N 54°13' E 012°01'2 0.3
2017-Jun-13 09:12N 54°15' E 012°00'210.6
2017-Jun-13 09:00N 54°17' E 011°60'9 9.2
2017-Jun-13 08:01N 54°26' E 012°02'0 9.1
2017-Jun-13 08:01N 54°26' E 012°02'6 8.3
2017-Jun-13 07:16N 54°30' E 012°11'310.1
2017-Jun-13 07:01N 54°32' E 012°12'510.4
2017-Jun-13 06:30N 54°37' E 012°15'5 9.5
2017-Jun-13 06:01N 54°40' E 012°22'54 8.8
2017-Jun-12 23:50N 55°01' E 013°49'3 8.7
2017-Jun-12 23:30N 55°02' E 013°54'4 8.6
2017-Jun-12 23:00N 55°03' E 014°01'4 8.5
2017-Jun-12 22:30N 55°06' E 014°06'4 8.7
2017-Jun-12 22:00N 55°09' E 014°11'4 8.7
2017-Jun-12 21:30N 55°13' E 014°16'4 8.8
2017-Jun-12 21:00N 55°16' E 014°20'5 9.2
2017-Jun-12 20:30N 55°20' E 014°25'5 9.6
2017-Jun-12 20:00N 55°24' E 014°31'5 9.5
2017-Jun-12 19:30N 55°27' E 014°36'5 9.4
2017-Jun-12 19:00N 55°29' E 014°44'5 9.4
2017-Jun-12 18:30N 55°32' E 014°51'5 9.1
2017-Jun-12 18:00N 55°34' E 014°58'5 9.1
2017-Jun-12 17:30N 55°36' E 015°05'5 9.2
2017-Jun-12 17:00N 55°39' E 015°12'4 8.8
2017-Jun-12 16:30N 55°40' E 015°19'5 8.9
2017-Jun-12 15:56N 55°41' E 015°28'  
Track history (hours):
 
Tides and Currents Weather Stations Pressure Air Temp Water Temp Dewpoint Dewpoint Depression Visibility Wind Speed Wind Dir Waves Ship Positions

Longvann

Last reported at 2017-Jun-22 10:16 UTC. Time now 2017-Jun-23 14:05 UTC.
Position N 57°29' E 021°16'.

Length 114 m; draft 3.8 m.

Type: Cargo ship. MMSI: 246670000.

Date/timePositionNaut miles runAvg speedWind from/ knotsBaromVisibWave heightAir tempDewpointWater temp
2017-Jun-22 10:16N 57°29' E 021°16'11511.0
2017-Jun-21 23:49N 55°53' E 019°20'511.3
2017-Jun-21 23:20N 55°49' E 019°14'811.2
2017-Jun-21 22:39N 55°42' E 019°06'810.9
2017-Jun-21 21:55N 55°36' E 018°59'1611.1
2017-Jun-21 20:31N 55°20' E 019°00'710.8
2017-Jun-21 19:50N 55°13' E 019°00'910.7
2017-Jun-21 18:57N 55°03' E 019°00'511.1
2017-Jun-21 18:30N 54°58' E 019°01'510.5
2017-Jun-21 18:01N 54°53' E 019°01'510.2
2017-Jun-21 17:31N 54°48' E 019°01'5 9.2
2017-Jun-21 17:01N 54°43' E 018°59'510.3
2017-Jun-21 16:30N 54°39' E 018°56'510.0
2017-Jun-21 16:00N 54°34' E 018°52'510.4
2017-Jun-21 15:31N 54°30' E 018°46'510.3
2017-Jun-21 15:01N 54°27' E 018°40'3 6.0
2017-Jun-21 14:31N 54°24' E 018°40'1 0.8
2017-Jun-21 13:29N 54°23' E 018°39'0 0.0
2017-Jun-21 12:59N 54°23' E 018°39'0 0.0
2017-Jun-21 12:26N 54°23' E 018°39'0 0.0
2017-Jun-21 11:59N 54°23' E 018°39'0 0.0
2017-Jun-21 11:29N 54°23' E 018°39'0 0.0
2017-Jun-21 10:59N 54°23' E 018°39'0 0.0
2017-Jun-21 10:29N 54°23' E 018°39'0 0.0
2017-Jun-21 09:59N 54°23' E 018°39'0 0.0
2017-Jun-21 09:29N 54°23' E 018°39'0 0.0
2017-Jun-21 08:59N 54°23' E 018°39'0 0.0
2017-Jun-21 08:29N 54°23' E 018°39'0 0.0
2017-Jun-21 07:59N 54°23' E 018°39'0 0.0
2017-Jun-21 07:29N 54°23' E 018°39'0 0.0
2017-Jun-21 06:59N 54°23' E 018°39'0 0.0
2017-Jun-21 06:29N 54°23' E 018°39'0 0.0
2017-Jun-21 05:59N 54°23' E 018°39'0 0.0
2017-Jun-21 05:29N 54°23' E 018°39'0 0.0
2017-Jun-21 04:59N 54°23' E 018°39'0 0.0
2017-Jun-21 04:29N 54°23' E 018°39'0 0.0
2017-Jun-21 03:59N 54°23' E 018°39'0 0.0
2017-Jun-21 03:29N 54°23' E 018°39'0 0.0
2017-Jun-21 02:59N 54°23' E 018°39'0 0.0
2017-Jun-21 02:29N 54°23' E 018°39'0 0.0
2017-Jun-21 01:59N 54°23' E 018°39'0 0.0
2017-Jun-21 01:29N 54°23' E 018°39'0 0.7
2017-Jun-21 01:00N 54°23' E 018°40'2 4.0
2017-Jun-21 00:31N 54°25' E 018°39'3 5.7
2017-Jun-21 00:01N 54°28' E 018°41'4 7.9
2017-Jun-20 23:31N 54°31' E 018°46'4 8.9
2017-Jun-20 23:01N 54°34' E 018°51'5 9.5
2017-Jun-20 22:31N 54°38' E 018°55'5 9.1
2017-Jun-20 22:01N 54°42' E 018°58'4 8.6
2017-Jun-20 21:31N 54°47' E 018°60'4 8.9
2017-Jun-20 21:00N 54°51' E 018°60'5 9.3
2017-Jun-20 20:31N 54°56' E 018°60'5 9.3
2017-Jun-20 20:00N 55°00' E 018°59'5 9.1
2017-Jun-20 19:27N 55°05' E 018°59'5 9.2
2017-Jun-20 18:54N 55°11' E 018°59'27 9.7
2017-Jun-20 16:03N 55°38' E 019°06'3 9.9
2017-Jun-20 15:45N 55°40' E 019°09'310.1
2017-Jun-20 15:29N 55°43' E 019°11'610.1
2017-Jun-20 14:56N 55°48' E 019°16'1210.3
2017-Jun-20 13:46N 55°58' E 019°26'14010.7
2017-Jun-20 00:37N 58°09' E 020°58'110.6
2017-Jun-20 00:30N 58°10' E 020°58'510.7
2017-Jun-20 00:00N 58°15' E 021°01'510.6
2017-Jun-19 23:30N 58°20' E 021°05'510.7
2017-Jun-19 23:00N 58°26' E 021°08'510.7
2017-Jun-19 22:30N 58°31' E 021°11'510.7
2017-Jun-19 22:00N 58°36' E 021°14'510.7
2017-Jun-19 21:30N 58°41' E 021°16'510.8
2017-Jun-19 21:00N 58°46' E 021°17'510.6
2017-Jun-19 20:30N 58°51' E 021°21'611.1
2017-Jun-19 20:00N 58°56' E 021°24'510.7
2017-Jun-19 19:30N 59°01' E 021°28'510.5
2017-Jun-19 19:00N 59°06' E 021°32'510.3
2017-Jun-19 18:30N 59°10' E 021°39'510.6
2017-Jun-19 18:00N 59°13' E 021°47'510.6
2017-Jun-19 17:30N 59°17' E 021°55'510.6
2017-Jun-19 17:00N 59°20' E 022°03'510.7
2017-Jun-19 16:30N 59°23' E 022°11'510.8
2017-Jun-19 16:00N 59°27' E 022°20'510.8
2017-Jun-19 15:30N 59°30' E 022°28'510.3
2017-Jun-19 15:00N 59°32' E 022°37'510.5
2017-Jun-19 14:30N 59°34' E 022°47'1010.4
2017-Jun-19 13:30N 59°36' E 023°07'510.6
2017-Jun-19 13:00N 59°38' E 023°17'510.5
2017-Jun-19 12:31N 59°39' E 023°27'510.7
2017-Jun-19 12:01N 59°41' E 023°37'510.8
2017-Jun-19 11:31N 59°42' E 023°48'510.8
2017-Jun-19 11:01N 59°43' E 023°58'510.9
2017-Jun-19 10:30N 59°45' E 024°08'611.0
2017-Jun-19 10:00N 59°46' E 024°19'510.8
2017-Jun-19 09:30N 59°48' E 024°29'510.5
2017-Jun-19 09:00N 59°49' E 024°40'510.3
2017-Jun-19 08:30N 59°50' E 024°50'510.1
2017-Jun-19 08:00N 59°51' E 024°59'510.2
2017-Jun-19 07:30N 59°52' E 025°09'510.3
2017-Jun-19 07:00N 59°53' E 025°19'510.6
2017-Jun-19 06:31N 59°54' E 025°30'510.5
2017-Jun-19 06:00N 59°55' E 025°40'510.3
2017-Jun-19 05:30N 59°56' E 025°50'510.4
2017-Jun-19 05:00N 59°57' E 026°00'510.8
2017-Jun-19 04:30N 59°59' E 026°11'511.0
2017-Jun-19 04:01N 60°00' E 026°21'510.3
2017-Jun-19 03:31N 60°01' E 026°31'510.7
2017-Jun-19 03:01N 60°01' E 026°42'510.4
2017-Jun-19 02:30N 60°00' E 026°52'510.5
2017-Jun-19 02:00N 59°59' E 027°03'510.8
2017-Jun-19 01:31N 60°02' E 027°12'510.8
2017-Jun-19 01:00N 60°05' E 027°21'510.8
2017-Jun-19 00:30N 60°08' E 027°30'510.7
2017-Jun-19 00:00N 60°11' E 027°40'510.1
2017-Jun-18 23:30N 60°12' E 027°49'510.5
2017-Jun-18 23:00N 60°11' E 027°60'510.5
2017-Jun-18 22:30N 60°09' E 028°10'510.1
2017-Jun-18 22:00N 60°07' E 028°19'510.1
2017-Jun-18 21:30N 60°04' E 028°27'510.0
2017-Jun-18 21:01N 60°03' E 028°37'510.2
2017-Jun-18 20:30N 60°03' E 028°47'5 9.9
2017-Jun-18 20:00N 60°03' E 028°57'510.1
2017-Jun-18 19:30N 60°02' E 029°07'510.3
2017-Jun-18 19:00N 60°02' E 029°18'6 9.2
2017-Jun-18 18:23N 60°01' E 029°29'1810.6
2017-Jun-18 16:43N 59°55' E 030°02'210.3
2017-Jun-18 16:30N 59°54' E 030°06'3 6.5
2017-Jun-18 15:58N 59°53' E 030°12'0 0.5
2017-Jun-18 15:28N 59°54' E 030°13'0 0.0
2017-Jun-18 14:49N 59°54' E 030°13'0 0.0
2017-Jun-18 13:58N 59°54' E 030°13'0 0.0
2017-Jun-18 13:22N 59°54' E 030°13'0 0.0
2017-Jun-18 12:58N 59°54' E 030°13'0 0.0
2017-Jun-18 12:28N 59°54' E 030°13'0 0.0
2017-Jun-18 11:58N 59°54' E 030°13'0 0.0
2017-Jun-18 11:16N 59°54' E 030°13'0 0.0
2017-Jun-18 10:52N 59°54' E 030°13'0 0.0
2017-Jun-18 10:28N 59°54' E 030°13'0 0.0
2017-Jun-18 09:58N 59°54' E 030°13'0 0.0
2017-Jun-18 09:28N 59°54' E 030°13'0 0.0
2017-Jun-18 08:58N 59°54' E 030°13'0 0.0
2017-Jun-18 08:28N 59°54' E 030°13'0 0.0
2017-Jun-18 07:58N 59°54' E 030°13'0 0.0
2017-Jun-18 07:28N 59°54' E 030°13'0 0.0
2017-Jun-18 06:58N 59°54' E 030°13'0 0.0
2017-Jun-18 06:28N 59°54' E 030°13'0 0.0
2017-Jun-18 05:55N 59°54' E 030°13'0 0.0
2017-Jun-18 05:28N 59°54' E 030°13'0 0.0
2017-Jun-18 04:58N 59°54' E 030°13'0 0.0
2017-Jun-18 04:28N 59°54' E 030°13'0 0.0
2017-Jun-18 03:58N 59°54' E 030°13'0 0.0
2017-Jun-18 03:28N 59°54' E 030°13'0 0.0
2017-Jun-18 02:58N 59°54' E 030°13'0 0.0
2017-Jun-18 02:28N 59°54' E 030°13'0 0.0
2017-Jun-18 01:58N 59°54' E 030°13'0 0.0
2017-Jun-18 01:28N 59°54' E 030°13'0 0.0
2017-Jun-18 00:58N 59°54' E 030°13'0 0.0
2017-Jun-18 00:28N 59°54' E 030°13'0 0.0
2017-Jun-17 23:58N 59°54' E 030°13'0 0.0
2017-Jun-17 23:28N 59°54' E 030°13'0 0.0
2017-Jun-17 22:58N 59°54' E 030°13'1 1.1
2017-Jun-17 22:30N 59°53' E 030°12'3 5.9
2017-Jun-17 22:00N 59°54' E 030°06'510.5
2017-Jun-17 21:30N 59°56' E 029°56'510.9
2017-Jun-17 21:00N 59°58' E 029°47'3 5.6
2017-Jun-17 20:30N 59°60' E 029°41'5 9.7
2017-Jun-17 20:00N 60°01' E 029°32'5 9.6
2017-Jun-17 19:30N 60°02' E 029°23'510.0
2017-Jun-17 19:00N 60°02' E 029°13'510.2
2017-Jun-17 18:30N 60°02' E 029°02'510.6
2017-Jun-17 18:00N 60°02' E 028°52'611.9
2017-Jun-17 17:30N 60°02' E 028°40'611.7
2017-Jun-17 17:00N 60°03' E 028°28'611.7
2017-Jun-17 16:30N 60°06' E 028°18'611.8
2017-Jun-17 16:00N 60°08' E 028°08'611.8
2017-Jun-17 15:30N 60°10' E 027°56'611.3
2017-Jun-17 15:00N 60°10' E 027°45'1211.9
2017-Jun-17 14:00N 60°04' E 027°24'611.8
2017-Jun-17 13:30N 60°01' E 027°14'611.8
2017-Jun-17 13:00N 59°58' E 027°04'611.7
2017-Jun-17 12:30N 59°58' E 026°52'611.8
2017-Jun-17 12:00N 59°59' E 026°41'611.8
2017-Jun-17 11:30N 59°58' E 026°29'611.9
2017-Jun-17 11:00N 59°56' E 026°18'611.8
2017-Jun-17 10:30N 59°54' E 026°07'611.7
2017-Jun-17 10:00N 59°53' E 025°55'611.7
2017-Jun-17 09:30N 59°52' E 025°44'611.9
2017-Jun-17 09:00N 59°50' E 025°33'611.8
2017-Jun-17 08:30N 59°49' E 025°21'611.9
2017-Jun-17 08:00N 59°48' E 025°09'611.9
2017-Jun-17 07:30N 59°46' E 024°58'611.6
2017-Jun-17 07:00N 59°45' E 024°47'611.6
2017-Jun-17 06:30N 59°44' E 024°35'611.5
2017-Jun-17 06:00N 59°43' E 024°24'611.8
2017-Jun-17 05:30N 59°41' E 024°13'611.6
2017-Jun-17 05:00N 59°39' E 024°02'611.5
2017-Jun-17 04:30N 59°37' E 023°52'611.5
2017-Jun-17 04:00N 59°35' E 023°41'611.4
2017-Jun-17 03:30N 59°33' E 023°30'611.3
2017-Jun-17 03:00N 59°31' E 023°20'611.5
2017-Jun-17 02:30N 59°30' E 023°09'611.6
2017-Jun-17 02:00N 59°28' E 022°58'611.7
2017-Jun-17 01:30N 59°26' E 022°47'611.8
2017-Jun-17 01:00N 59°24' E 022°37'611.8
2017-Jun-17 00:30N 59°20' E 022°27'611.9
2017-Jun-17 00:00N 59°16' E 022°18'611.7
2017-Jun-16 23:30N 59°13' E 022°09'611.7
2017-Jun-16 23:01N 59°09' E 022°00'611.7
2017-Jun-16 22:30N 59°06' E 021°51'611.5
2017-Jun-16 22:00N 59°02' E 021°43'611.7
2017-Jun-16 21:30N 58°57' E 021°37'611.6
2017-Jun-16 21:00N 58°52' E 021°31'611.4
2017-Jun-16 20:30N 58°47' E 021°25'611.2
2017-Jun-16 20:00N 58°42' E 021°20'611.1
2017-Jun-16 19:30N 58°38' E 021°14'611.2
2017-Jun-16 19:00N 58°33' E 021°08'611.5
2017-Jun-16 18:30N 58°28' E 021°02'611.5
2017-Jun-16 18:00N 58°23' E 020°56'611.4
2017-Jun-16 17:30N 58°18' E 020°50'611.4
2017-Jun-16 17:00N 58°14' E 020°44'611.5
2017-Jun-16 16:30N 58°09' E 020°38'611.4
2017-Jun-16 16:00N 58°04' E 020°33'611.4
2017-Jun-16 15:30N 57°59' E 020°27'611.5
2017-Jun-16 15:01N 57°54' E 020°21'611.4
2017-Jun-16 14:30N 57°50' E 020°15'1311.8
2017-Jun-16 13:26N 57°39' E 020°02'511.8
2017-Jun-16 13:00N 57°35' E 019°57'611.8
2017-Jun-16 12:30N 57°30' E 019°51'711.9
2017-Jun-16 11:55N 57°24' E 019°44'2911.7
2017-Jun-16 09:26N 57°03' E 019°06'6211.8
2017-Jun-16 04:14N 56°25' E 017°38'312.0
2017-Jun-16 03:57N 56°23' E 017°33'511.9
2017-Jun-16 03:30N 56°20' E 017°25'611.9
2017-Jun-16 03:00N 56°16' E 017°17'611.9
2017-Jun-16 02:30N 56°12' E 017°09'611.9
2017-Jun-16 02:00N 56°09' E 017°00'611.8
2017-Jun-16 01:30N 56°05' E 016°52'611.8
2017-Jun-16 01:00N 56°02' E 016°44'611.8
2017-Jun-16 00:30N 55°58' E 016°35'611.8
2017-Jun-16 00:00N 55°55' E 016°26'611.6
2017-Jun-15 23:30N 55°53' E 016°17'611.5
2017-Jun-15 23:00N 55°50' E 016°08'611.6
2017-Jun-15 22:30N 55°47' E 015°58'611.6
2017-Jun-15 22:00N 55°44' E 015°49'611.7
2017-Jun-15 21:30N 55°42' E 015°40'611.9
2017-Jun-15 21:00N 55°39' E 015°31'611.7
2017-Jun-15 20:30N 55°36' E 015°22'611.6
2017-Jun-15 20:01N 55°33' E 015°13'611.6
2017-Jun-15 19:31N 55°31' E 015°04'611.6
2017-Jun-15 19:00N 55°28' E 014°55'611.8
2017-Jun-15 18:31N 55°25' E 014°46'611.2
2017-Jun-15 18:00N 55°22' E 014°37'611.3
2017-Jun-15 17:30N 55°17' E 014°31'611.4
2017-Jun-15 17:01N 55°13' E 014°25'611.5
2017-Jun-15 16:30N 55°08' E 014°19'611.5
2017-Jun-15 16:00N 55°04' E 014°13'611.0
2017-Jun-15 15:30N 55°00' E 014°06'611.5
2017-Jun-15 15:00N 54°58' E 013°56'611.6
2017-Jun-15 14:31N 54°57' E 013°47'1211.8
2017-Jun-15 13:30N 54°53' E 013°27'611.6
2017-Jun-15 12:59N 54°51' E 013°17'611.8
2017-Jun-15 12:30N 54°49' E 013°08'611.8
2017-Jun-15 12:01N 54°48' E 012°58'611.5
2017-Jun-15 11:30N 54°46' E 012°48'611.3
2017-Jun-15 11:00N 54°43' E 012°40'611.3
2017-Jun-15 10:30N 54°40' E 012°32'1710.9
2017-Jun-15 08:57N 54°27' E 012°14'16 1.9
2017-Jun-15 00:47N 54°14' E 011°59'0 0.0
2017-Jun-15 00:29N 54°14' E 011°59'0 0.0
2017-Jun-14 21:32N 54°14' E 011°59'0 0.0
2017-Jun-14 21:29N 54°14' E 011°59'0 0.0
2017-Jun-14 20:59N 54°14' E 011°59'0 0.0
2017-Jun-14 16:32N 54°14' E 011°59'0 0.0
2017-Jun-14 16:29N 54°14' E 011°59'1 0.4
2017-Jun-14 14:45N 54°13' E 012°00'5 7.1
2017-Jun-14 14:00N 54°10' E 012°06'0 0.3
2017-Jun-14 12:45N 54°09' E 012°07'0 0.0
2017-Jun-14 12:30N 54°09' E 012°07'0 0.0
2017-Jun-14 02:30N 54°09' E 012°07'0 0.1
2017-Jun-13 22:39N 54°09' E 012°06'4 2.3
2017-Jun-13 20:47N 54°13' E 012°02'1 1.7
2017-Jun-13 20:28N 54°13' E 012°01'0 0.0
2017-Jun-13 18:22N 54°13' E 012°01'0 0.0
2017-Jun-13 17:40N 54°13' E 012°01'0 0.0
2017-Jun-13 17:13N 54°13' E 012°01'0 0.0
2017-Jun-13 16:46N 54°13' E 012°01'0 0.0
2017-Jun-13 16:28N 54°13' E 012°01'2 0.3
2017-Jun-13 09:12N 54°15' E 012°00'210.6
2017-Jun-13 09:00N 54°17' E 011°60'9 9.2
2017-Jun-13 08:01N 54°26' E 012°02'0 9.1
2017-Jun-13 08:01N 54°26' E 012°02'6 8.3
2017-Jun-13 07:16N 54°30' E 012°11'310.1
2017-Jun-13 07:01N 54°32' E 012°12'510.4
2017-Jun-13 06:30N 54°37' E 012°15'5 9.5
2017-Jun-13 06:01N 54°40' E 012°22'54 8.8
2017-Jun-12 23:50N 55°01' E 013°49'3 8.7
2017-Jun-12 23:30N 55°02' E 013°54'4 8.6
2017-Jun-12 23:00N 55°03' E 014°01'4 8.5
2017-Jun-12 22:30N 55°06' E 014°06'4 8.7
2017-Jun-12 22:00N 55°09' E 014°11'4 8.7
2017-Jun-12 21:30N 55°13' E 014°16'4 8.8
2017-Jun-12 21:00N 55°16' E 014°20'5 9.2
2017-Jun-12 20:30N 55°20' E 014°25'5 9.6
2017-Jun-12 20:00N 55°24' E 014°31'5 9.5
2017-Jun-12 19:30N 55°27' E 014°36'5 9.4
2017-Jun-12 19:00N 55°29' E 014°44'5 9.4
2017-Jun-12 18:30N 55°32' E 014°51'5 9.1
2017-Jun-12 18:00N 55°34' E 014°58'5 9.1
2017-Jun-12 17:30N 55°36' E 015°05'5 9.2
2017-Jun-12 17:00N 55°39' E 015°12'4 8.8
2017-Jun-12 16:30N 55°40' E 015°19'5 8.9
2017-Jun-12 15:56N 55°41' E 015°28'  

Dump ship's entire track history